Time;durP1;ratioP1;P1;durP2;ratioP2;P2;SDS_P1;SDS_P2;PMS_P1;PMS_P2;Temp;Humidity;BMP_temperature;BMP_pressure;BME280_temperature;BME280_humidity;BME280_pressure;Samples;Min_cycle;Max_cycle;Signal;HPM_P1;HPM_P2
2023/08/04 00:01:38;;;;;;;8.60;7.07;;;;;;;;;;5094069;28;20195;-84
2023/08/04 00:04:05;;;;;;;9.17;8.47;;;;;;;;;;5092592;28;20207;-84
2023/08/04 00:06:32;;;;;;;8.13;7.43;;;;;;;;;;5093957;28;20207;-80
2023/08/04 00:09:00;;;;;;;7.87;7.07;;;;;;;;;;5112479;28;20221;-80
2023/08/04 00:11:28;;;;;;;8.60;7.87;;;;;;;;;;5094288;28;20202;-82
2023/08/04 00:13:55;;;;;;;8.33;7.50;;;;;;;;;;5077775;28;20199;-79
2023/08/04 00:16:22;;;;;;;7.03;6.53;;;;;;;;;;5112388;28;20550;-80
2023/08/04 00:18:49;;;;;;;8.60;7.47;;;;;;;;;;5094389;28;20203;-80
2023/08/04 00:21:16;;;;;;;8.53;7.40;;;;;;;;;;5076956;28;20256;-85
2023/08/04 00:23:43;;;;;;;9.10;8.27;;;;;;;;;;5094776;28;20207;-85
2023/08/04 00:26:11;;;;;;;7.53;6.87;;;;;;;;;;5094278;28;20248;-85
2023/08/04 00:28:38;;;;;;;8.80;8.00;;;;;;;;;;5094026;28;20199;-84
2023/08/04 00:31:05;;;;;;;8.33;7.63;;;;;;;;;;5110349;28;20290;-85
2023/08/04 00:33:32;;;;;;;8.90;8.10;;;;;;;;;;5111466;28;20692;-85
2023/08/04 00:35:59;;;;;;;9.77;7.90;;;;;;;;;;5093912;28;20202;-85
2023/08/04 00:38:26;;;;;;;8.43;7.67;;;;;;;;;;5112285;28;20192;-83
2023/08/04 00:40:53;;;;;;;9.10;8.40;;;;;;;;;;5111662;28;20202;-84
2023/08/04 00:43:22;;;;;;;11.17;8.23;;;;;;;;;;5112416;28;20297;-85
2023/08/04 00:45:49;;;;;;;8.47;7.67;;;;;;;;;;5111845;28;20206;-85
2023/08/04 00:48:16;;;;;;;8.90;7.80;;;;;;;;;;5112154;28;20205;-87
2023/08/04 00:50:44;;;;;;;8.43;7.70;;;;;;;;;;5078102;28;20229;-84
2023/08/04 00:53:11;;;;;;;9.30;7.90;;;;;;;;;;5093833;28;20231;-84
2023/08/04 00:55:38;;;;;;;54.40;11.90;;;;;;;;;;5112052;28;20199;-83
2023/08/04 00:58:05;;;;;;;7.63;7.03;;;;;;;;;;5093976;28;20206;-83
2023/08/04 01:00:33;;;;;;;28.47;8.97;;;;;;;;;;5077083;28;20199;-83
2023/08/04 01:03:01;;;;;;;8.07;7.47;;;;;;;;;;5093727;28;20637;-84
2023/08/04 01:05:35;;;;;;;8.60;7.87;;;;;;;;;;5076967;28;20204;-86
2023/08/04 01:08:11;;;;;;;9.20;7.83;;;;;;;;;;5111809;28;20191;-94
2023/08/04 01:10:48;;;;;;;8.63;7.80;;;;;;;;;;5111768;28;20219;-92
2023/08/04 01:13:18;;;;;;;8.67;7.97;;;;;;;;;;5094764;28;20249;-86
2023/08/04 01:15:47;;;;;;;8.33;7.57;;;;;;;;;;5111284;28;20658;-83
2023/08/04 01:18:13;;;;;;;9.20;8.40;;;;;;;;;;5093180;28;20210;-83
2023/08/04 01:20:40;;;;;;;8.60;7.87;;;;;;;;;;5112757;28;20219;-82
2023/08/04 01:23:09;;;;;;;8.30;7.60;;;;;;;;;;5111484;28;20661;-83
2023/08/04 01:25:36;;;;;;;8.03;7.33;;;;;;;;;;5077314;28;20603;-82
2023/08/04 01:28:06;;;;;;;9.00;7.70;;;;;;;;;;5093973;28;20233;-83
2023/08/04 01:30:34;;;;;;;9.57;8.77;;;;;;;;;;5111809;28;20222;-84
2023/08/04 01:33:01;;;;;;;8.30;7.53;;;;;;;;;;5093533;28;20199;-83
2023/08/04 01:35:28;;;;;;;10.80;8.33;;;;;;;;;;5093502;28;20199;-84
2023/08/04 01:37:55;;;;;;;8.30;7.60;;;;;;;;;;5093791;28;20669;-84
2023/08/04 01:40:24;;;;;;;8.10;7.40;;;;;;;;;;5077209;28;20790;-84
2023/08/04 01:42:51;;;;;;;9.30;8.60;;;;;;;;;;5093881;28;20696;-86
2023/08/04 01:45:19;;;;;;;8.77;8.07;;;;;;;;;;5095009;28;20199;-86
2023/08/04 01:47:46;;;;;;;8.33;7.53;;;;;;;;;;5096776;28;20199;-85
2023/08/04 01:50:13;;;;;;;8.70;8.00;;;;;;;;;;5115473;28;20610;-82
2023/08/04 01:52:40;;;;;;;8.60;7.90;;;;;;;;;;5080128;28;20227;-83
2023/08/04 01:55:08;;;;;;;9.60;8.80;;;;;;;;;;5096714;28;20221;-81
2023/08/04 01:57:36;;;;;;;9.83;8.90;;;;;;;;;;5096828;28;20199;-85
2023/08/04 02:00:03;;;;;;;9.50;8.50;;;;;;;;;;5096797;28;20195;-85
2023/08/04 02:02:30;;;;;;;8.63;7.67;;;;;;;;;;5114510;28;20191;-85
2023/08/04 02:04:56;;;;;;;8.50;7.70;;;;;;;;;;5080116;28;20196;-79
2023/08/04 02:07:23;;;;;;;9.20;7.97;;;;;;;;;;5079955;28;20195;-82
2023/08/04 02:09:52;;;;;;;8.40;7.67;;;;;;;;;;5114623;28;20211;-79
2023/08/04 02:12:20;;;;;;;8.37;7.67;;;;;;;;;;5097038;28;20192;-80
2023/08/04 02:14:48;;;;;;;8.80;8.10;;;;;;;;;;5114039;28;20210;-80
2023/08/04 02:17:16;;;;;;;8.67;7.87;;;;;;;;;;5114104;28;20560;-81
2023/08/04 02:19:42;;;;;;;8.93;7.80;;;;;;;;;;5096411;28;20665;-81
2023/08/04 02:22:09;;;;;;;9.90;8.43;;;;;;;;;;5114629;28;20211;-80
2023/08/04 02:24:36;;;;;;;12.07;8.37;;;;;;;;;;5079746;28;20225;-80
2023/08/04 02:27:04;;;;;;;7.83;7.13;;;;;;;;;;5114412;28;20199;-80
2023/08/04 02:29:31;;;;;;;8.37;7.70;;;;;;;;;;5114489;28;20219;-80
2023/08/04 02:31:59;;;;;;;9.20;8.27;;;;;;;;;;5079610;28;20625;-81
2023/08/04 02:34:26;;;;;;;8.77;7.93;;;;;;;;;;5113581;28;20227;-81
2023/08/04 02:36:53;;;;;;;8.67;7.97;;;;;;;;;;5096000;28;20206;-80
2023/08/04 02:39:21;;;;;;;9.80;8.90;;;;;;;;;;5095923;28;20203;-81
2023/08/04 02:41:48;;;;;;;9.13;8.37;;;;;;;;;;5113970;28;20204;-80
2023/08/04 02:44:15;;;;;;;9.07;8.27;;;;;;;;;;5095431;28;20208;-80
2023/08/04 02:46:42;;;;;;;10.10;9.20;;;;;;;;;;5094709;28;20195;-84
2023/08/04 02:49:10;;;;;;;8.90;8.10;;;;;;;;;;5095804;28;20203;-81
2023/08/04 02:51:37;;;;;;;9.20;8.30;;;;;;;;;;5114204;28;20626;-84
2023/08/04 02:54:04;;;;;;;9.07;8.27;;;;;;;;;;5113666;28;20206;-77
2023/08/04 02:56:31;;;;;;;9.77;8.70;;;;;;;;;;5113141;28;20701;-77
2023/08/04 02:58:58;;;;;;;8.60;7.90;;;;;;;;;;5114345;28;20523;-77
2023/08/04 03:01:25;;;;;;;8.63;7.83;;;;;;;;;;5095464;28;20578;-77
2023/08/04 03:03:52;;;;;;;9.33;8.43;;;;;;;;;;5092018;28;20210;-77
2023/08/04 03:06:21;;;;;;;9.23;8.33;;;;;;;;;;5093223;28;20211;-82
2023/08/04 03:08:48;;;;;;;8.57;7.87;;;;;;;;;;5091878;28;20204;-84
2023/08/04 03:11:15;;;;;;;8.77;8.03;;;;;;;;;;5092983;28;20300;-84
2023/08/04 03:13:42;;;;;;;8.63;7.93;;;;;;;;;;5058530;28;20650;-83
2023/08/04 03:16:09;;;;;;;9.13;8.23;;;;;;;;;;5092544;28;20200;-83
2023/08/04 03:18:36;;;;;;;9.70;8.10;;;;;;;;;;5074947;28;20210;-83
2023/08/04 03:21:03;;;;;;;8.43;7.73;;;;;;;;;;5092376;28;20544;-84
2023/08/04 03:23:32;;;;;;;8.70;7.97;;;;;;;;;;5092713;28;20560;-84
2023/08/04 03:25:59;;;;;;;9.20;8.40;;;;;;;;;;5092783;28;20207;-84
2023/08/04 03:28:26;;;;;;;9.77;8.97;;;;;;;;;;5092740;28;20261;-84
2023/08/04 03:30:53;;;;;;;8.13;7.43;;;;;;;;;;5092595;28;20226;-84
2023/08/04 03:33:20;;;;;;;9.07;8.37;;;;;;;;;;5074547;28;20208;-84
2023/08/04 03:35:47;;;;;;;10.53;9.57;;;;;;;;;;5092584;28;20192;-84
2023/08/04 03:38:14;;;;;;;9.77;8.80;;;;;;;;;;5093459;28;20204;-84
2023/08/04 03:40:43;;;;;;;9.93;8.97;;;;;;;;;;5074620;28;20200;-84
2023/08/04 03:43:10;;;;;;;9.97;9.17;;;;;;;;;;5092062;28;20197;-84
2023/08/04 03:45:37;;;;;;;9.00;8.03;;;;;;;;;;5074446;28;20705;-84
2023/08/04 03:48:04;;;;;;;9.87;9.03;;;;;;;;;;5041556;28;20204;-84
2023/08/04 03:50:31;;;;;;;9.13;8.27;;;;;;;;;;5074370;28;20231;-85
2023/08/04 03:52:59;;;;;;;10.17;9.20;;;;;;;;;;5092275;28;20224;-83
2023/08/04 03:55:28;;;;;;;9.57;8.63;;;;;;;;;;5092221;28;20261;-82
2023/08/04 03:57:57;;;;;;;10.10;9.20;;;;;;;;;;5074595;28;20659;-84
2023/08/04 04:00:25;;;;;;;9.67;8.77;;;;;;;;;;5074301;28;20211;-84
2023/08/04 04:02:53;;;;;;;9.67;8.77;;;;;;;;;;5074487;28;20200;-86
2023/08/04 04:05:20;;;;;;;9.43;8.63;;;;;;;;;;5074224;28;20196;-85
2023/08/04 04:07:47;;;;;;;10.20;9.30;;;;;;;;;;5091464;28;20196;-85
2023/08/04 04:10:14;;;;;;;10.40;9.40;;;;;;;;;;5074010;28;20648;-84
2023/08/04 04:12:41;;;;;;;11.57;8.77;;;;;;;;;;5074272;28;20196;-85
2023/08/04 04:15:12;;;;;;;9.40;8.60;;;;;;;;;;5055778;28;20196;-84
2023/08/04 04:17:39;;;;;;;10.73;8.57;;;;;;;;;;5091553;28;20196;-85
2023/08/04 04:20:07;;;;;;;11.73;9.40;;;;;;;;;;5074367;28;20608;-87
2023/08/04 04:22:35;;;;;;;10.13;8.67;;;;;;;;;;5073745;28;20570;-86
2023/08/04 04:25:02;;;;;;;11.70;9.13;;;;;;;;;;5074325;28;20609;-86
2023/08/04 04:27:29;;;;;;;10.07;9.30;;;;;;;;;;5089962;28;20235;-86
2023/08/04 04:29:56;;;;;;;9.93;8.77;;;;;;;;;;5094219;28;20206;-85
2023/08/04 04:32:25;;;;;;;10.17;9.17;;;;;;;;;;5094640;28;20214;-87
2023/08/04 04:34:53;;;;;;;10.43;9.30;;;;;;;;;;5094338;28;20221;-87
2023/08/04 04:37:21;;;;;;;10.33;9.27;;;;;;;;;;5094028;28;20195;-86
2023/08/04 04:39:48;;;;;;;10.10;9.23;;;;;;;;;;5094445;28;20198;-85
2023/08/04 04:42:16;;;;;;;10.10;9.20;;;;;;;;;;5112659;28;20191;-85
2023/08/04 04:44:43;;;;;;;10.10;9.10;;;;;;;;;;5094776;28;20200;-85
2023/08/04 04:47:10;;;;;;;10.27;9.33;;;;;;;;;;5111829;28;20199;-84
2023/08/04 04:49:39;;;;;;;10.17;9.00;;;;;;;;;;5093868;28;20199;-85
2023/08/04 04:52:07;;;;;;;15.60;9.17;;;;;;;;;;5093893;28;20230;-84
2023/08/04 04:54:34;;;;;;;9.27;8.37;;;;;;;;;;5110436;28;20207;-84
2023/08/04 04:57:01;;;;;;;9.53;8.67;;;;;;;;;;5093848;28;20195;-82
2023/08/04 04:59:29;;;;;;;10.67;9.73;;;;;;;;;;5111844;28;20669;-82
2023/08/04 05:01:56;;;;;;;9.00;8.20;;;;;;;;;;5061342;28;20200;-82
2023/08/04 05:04:23;;;;;;;11.63;9.97;;;;;;;;;;5090832;28;20682;-82
2023/08/04 05:06:51;;;;;;;9.93;9.07;;;;;;;;;;5108406;28;20191;-81
2023/08/04 05:09:18;;;;;;;13.37;9.77;;;;;;;;;;5102620;28;20196;-82
2023/08/04 05:11:45;;;;;;;9.77;8.77;;;;;;;;;;5111348;28;20222;-81
2023/08/04 05:14:12;;;;;;;10.40;9.50;;;;;;;;;;5093499;28;20253;-82
2023/08/04 05:16:40;;;;;;;8.83;8.13;;;;;;;;;;5094879;28;20308;-82
2023/08/04 05:19:07;;;;;;;10.23;9.33;;;;;;;;;;5103106;28;20201;-82
2023/08/04 05:21:34;;;;;;;11.07;10.07;;;;;;;;;;5103897;28;20199;-82
2023/08/04 05:24:02;;;;;;;9.87;9.07;;;;;;;;;;5098768;28;20200;-86
2023/08/04 05:26:29;;;;;;;10.47;9.57;;;;;;;;;;5103797;28;20196;-83
2023/08/04 05:28:55;;;;;;;10.13;9.30;;;;;;;;;;5110301;28;20630;-83
2023/08/04 05:31:22;;;;;;;11.07;10.10;;;;;;;;;;5094633;28;20216;-83
2023/08/04 05:33:49;;;;;;;11.23;10.13;;;;;;;;;;5112747;28;20206;-83
2023/08/04 05:36:16;;;;;;;9.97;9.17;;;;;;;;;;5114810;28;20192;-83
2023/08/04 05:38:44;;;;;;;12.17;10.43;;;;;;;;;;5114408;28;20208;-82
2023/08/04 05:41:12;;;;;;;10.87;9.83;;;;;;;;;;5095353;28;20196;-86
2023/08/04 05:43:41;;;;;;;9.67;8.93;;;;;;;;;;5099247;28;20187;-89
2023/08/04 05:46:12;;;;;;;9.93;9.10;;;;;;;;;;5115971;28;20214;-92
2023/08/04 05:48:39;;;;;;;12.23;11.10;;;;;;;;;;5116815;28;20202;-93
2023/08/04 05:54:28;;;;;;;10.60;9.70;;;;;;;;;;5084117;28;20775;-90
2023/08/04 05:56:56;;;;;;;11.77;10.63;;;;;;;;;;5079302;28;20607;-91
2023/08/04 05:59:23;;;;;;;10.50;9.40;;;;;;;;;;5079480;28;20197;-89
2023/08/04 06:01:53;;;;;;;12.17;10.30;;;;;;;;;;5085403;28;20192;-89
2023/08/04 06:04:20;;;;;;;11.33;10.33;;;;;;;;;;5091080;28;20262;-89
2023/08/04 06:06:47;;;;;;;13.27;9.73;;;;;;;;;;5083304;28;20199;-89
2023/08/04 06:09:14;;;;;;;13.73;9.20;;;;;;;;;;5095438;28;20231;-89
2023/08/04 06:11:40;;;;;;;11.27;9.57;;;;;;;;;;5088391;28;20219;-89
2023/08/04 06:14:08;;;;;;;14.67;9.73;;;;;;;;;;5076698;28;20200;-89
2023/08/04 06:16:35;;;;;;;12.80;9.25;;;;;;;;;;5073885;28;20258;-87
2023/08/04 06:19:02;;;;;;;9.10;8.20;;;;;;;;;;5089368;28;20193;-87
2023/08/04 06:21:35;;;;;;;9.38;8.52;;;;;;;;;;5088355;28;20659;-86
2023/08/04 06:24:03;;;;;;;10.38;8.68;;;;;;;;;;5073186;28;20207;-88
2023/08/04 06:26:30;;;;;;;8.93;8.02;;;;;;;;;;5091140;28;20200;-88
2023/08/04 06:28:57;;;;;;;10.38;9.10;;;;;;;;;;5086796;28;20213;-88
2023/08/04 06:31:25;;;;;;;13.65;8.60;;;;;;;;;;5076451;28;20224;-89
2023/08/04 06:33:52;;;;;;;8.85;7.85;;;;;;;;;;5083686;28;20249;-90
2023/08/04 06:36:19;;;;;;;7.90;7.30;;;;;;;;;;5094839;28;20200;-89
2023/08/04 06:38:46;;;;;;;9.43;8.10;;;;;;;;;;5094214;28;20203;-88
2023/08/04 06:41:15;;;;;;;9.32;8.52;;;;;;;;;;5093800;28;20269;-88
2023/08/04 06:43:41;;;;;;;8.43;7.72;;;;;;;;;;5078912;28;20546;-89
2023/08/04 06:46:08;;;;;;;8.73;7.93;;;;;;;;;;5081645;28;20200;-92
2023/08/04 06:48:36;;;;;;;8.88;7.65;;;;;;;;;;5087637;28;20245;-91
2023/08/04 06:51:03;;;;;;;8.82;8.00;;;;;;;;;;5078484;28;20220;-92
2023/08/04 06:53:30;;;;;;;8.40;7.60;;;;;;;;;;5074118;28;20651;-92
2023/08/04 06:55:57;;;;;;;8.82;7.93;;;;;;;;;;5087803;28;20642;-92
2023/08/04 06:58:24;;;;;;;8.57;7.82;;;;;;;;;;5081616;28;20193;-93
2023/08/04 07:00:51;;;;;;;8.00;7.30;;;;;;;;;;5079528;28;20208;-92
2023/08/04 07:03:17;;;;;;;8.63;7.90;;;;;;;;;;5094579;28;20227;-93
2023/08/04 07:05:46;;;;;;;7.70;7.10;;;;;;;;;;5075884;28;20205;-93
2023/08/04 07:08:13;;;;;;;8.65;7.85;;;;;;;;;;5073356;28;20280;-93
2023/08/04 07:10:40;;;;;;;9.48;6.88;;;;;;;;;;5073993;28;20266;-94
2023/08/04 07:13:06;;;;;;;9.80;7.90;;;;;;;;;;5085289;28;20228;-94
2023/08/04 07:15:33;;;;;;;7.97;6.72;;;;;;;;;;5083047;28;20642;-93
2023/08/04 07:18:00;;;;;;;9.00;8.20;;;;;;;;;;5085596;28;20200;-91
2023/08/04 07:20:28;;;;;;;7.20;6.50;;;;;;;;;;5073420;28;20347;-95
2023/08/04 07:22:56;;;;;;;7.28;6.68;;;;;;;;;;5089599;28;20192;-93
2023/08/04 07:25:23;;;;;;;6.05;5.60;;;;;;;;;;5092485;28;20557;-90
2023/08/04 07:27:50;;;;;;;6.72;6.20;;;;;;;;;;5071805;28;20205;-85
2023/08/04 07:30:17;;;;;;;7.55;6.95;;;;;;;;;;5079473;28;20203;-85
2023/08/04 07:32:44;;;;;;;7.93;7.03;;;;;;;;;;5081034;28;20228;-84
2023/08/04 07:35:10;;;;;;;7.35;6.68;;;;;;;;;;5085035;28;20207;-85
2023/08/04 07:37:37;;;;;;;7.70;6.93;;;;;;;;;;5071448;28;20288;-85
2023/08/04 07:40:07;;;;;;;8.73;7.85;;;;;;;;;;5071543;28;20207;-85
2023/08/04 07:42:33;;;;;;;6.78;6.13;;;;;;;;;;5074634;28;20193;-83
2023/08/04 07:45:00;;;;;;;7.15;6.25;;;;;;;;;;5086176;28;20616;-84
2023/08/04 07:47:27;;;;;;;11.68;10.57;;;;;;;;;;5091656;28;20200;-83
2023/08/04 07:49:54;;;;;;;7.47;6.78;;;;;;;;;;5077128;28;20204;-83
2023/08/04 07:52:20;;;;;;;6.60;5.22;;;;;;;;;;5089862;28;20220;-83
2023/08/04 07:54:47;;;;;;;13.77;6.88;;;;;;;;;;5081029;28;20224;-83
2023/08/04 07:57:15;;;;;;;6.78;5.55;;;;;;;;;;5080545;28;20578;-83
2023/08/04 07:59:42;;;;;;;6.63;5.28;;;;;;;;;;5091556;28;20203;-83
2023/08/04 08:02:09;;;;;;;6.63;5.47;;;;;;;;;;5072634;28;20208;-83
2023/08/04 08:04:36;;;;;;;6.22;5.72;;;;;;;;;;5071013;28;20216;-82
2023/08/04 08:07:03;;;;;;;6.80;5.10;;;;;;;;;;5083161;28;20200;-84
2023/08/04 08:09:29;;;;;;;7.22;5.53;;;;;;;;;;5071289;28;20207;-84
2023/08/04 08:11:56;;;;;;;6.40;5.10;;;;;;;;;;5076889;28;20208;-83
2023/08/04 08:14:24;;;;;;;5.50;5.10;;;;;;;;;;5091267;28;20192;-83
2023/08/04 08:16:51;;;;;;;7.72;5.25;;;;;;;;;;5082813;28;20193;-82
2023/08/04 08:19:18;;;;;;;7.38;5.25;;;;;;;;;;5075823;28;20196;-83
2023/08/04 08:21:45;;;;;;;5.82;5.22;;;;;;;;;;5079889;28;20197;-84
2023/08/04 08:24:11;;;;;;;5.70;5.22;;;;;;;;;;5073492;28;20204;-83
2023/08/04 08:26:39;;;;;;;7.15;6.38;;;;;;;;;;5091112;28;20200;-82
2023/08/04 08:29:06;;;;;;;7.38;4.90;;;;;;;;;;5090860;28;20279;-85
2023/08/04 08:31:34;;;;;;;6.20;5.60;;;;;;;;;;5091220;28;20251;-82
2023/08/04 08:34:01;;;;;;;6.22;5.63;;;;;;;;;;5073971;28;20254;-83
2023/08/04 08:36:28;;;;;;;7.00;6.40;;;;;;;;;;5080560;28;20200;-82
2023/08/04 08:38:55;;;;;;;7.10;5.78;;;;;;;;;;5074025;28;20193;-82
2023/08/04 08:41:24;;;;;;;5.70;5.30;;;;;;;;;;5070684;28;20254;-83
2023/08/04 08:43:50;;;;;;;6.90;6.13;;;;;;;;;;5070635;28;20200;-83
2023/08/04 08:46:17;;;;;;;8.45;6.05;;;;;;;;;;5071969;28;20196;-82
2023/08/04 08:48:47;;;;;;;6.72;6.18;;;;;;;;;;5077207;28;20544;-83
2023/08/04 08:51:19;;;;;;;6.93;6.25;;;;;;;;;;5072256;28;20275;-83
2023/08/04 08:53:47;;;;;;;7.13;5.90;;;;;;;;;;5090690;28;20224;-85
2023/08/04 08:56:14;;;;;;;6.30;5.47;;;;;;;;;;5081238;28;20203;-85
2023/08/04 08:58:42;;;;;;;7.35;5.93;;;;;;;;;;5095110;28;20206;-82
2023/08/04 09:01:08;;;;;;;6.63;6.03;;;;;;;;;;5092246;28;20192;-82
2023/08/04 09:03:35;;;;;;;5.93;5.40;;;;;;;;;;5094582;28;20200;-82
2023/08/04 09:06:04;;;;;;;6.50;5.90;;;;;;;;;;5078485;28;20228;-82
2023/08/04 09:08:31;;;;;;;6.88;5.78;;;;;;;;;;5083473;28;20796;-82
2023/08/04 09:10:58;;;;;;;6.95;6.35;;;;;;;;;;5078680;28;20205;-83
2023/08/04 09:13:26;;;;;;;6.82;6.22;;;;;;;;;;5090671;28;20252;-82
2023/08/04 09:15:54;;;;;;;6.60;6.00;;;;;;;;;;5084883;28;20740;-81
2023/08/04 09:18:25;;;;;;;7.10;6.60;;;;;;;;;;5094192;28;20198;-83
2023/08/04 09:20:59;;;;;;;6.63;6.13;;;;;;;;;;5094805;28;20199;-82
2023/08/04 09:23:28;;;;;;;7.85;7.25;;;;;;;;;;5095637;28;20192;-82
2023/08/04 09:25:55;;;;;;;9.15;6.65;;;;;;;;;;5088583;28;20200;-81
2023/08/04 09:28:22;;;;;;;6.78;6.28;;;;;;;;;;5074166;28;20197;-82
2023/08/04 09:31:05;;;;;;;7.70;6.50;;;;;;;;;;5088446;28;20197;-82
2023/08/04 09:33:33;;;;;;;7.43;6.80;;;;;;;;;;5076182;28;20243;-89
2023/08/04 09:36:04;;;;;;;6.97;6.47;;;;;;;;;;5092189;28;20247;-84
2023/08/04 09:38:33;;;;;;;7.70;6.63;;;;;;;;;;5076346;28;20216;-84
2023/08/04 09:41:03;;;;;;;10.30;6.72;;;;;;;;;;5086497;28;20251;-84
2023/08/04 09:43:30;;;;;;;7.13;6.40;;;;;;;;;;5073394;28;20204;-82
2023/08/04 09:45:58;;;;;;;8.13;7.38;;;;;;;;;;5075338;28;20193;-84
2023/08/04 09:48:26;;;;;;;6.47;5.88;;;;;;;;;;5093188;28;20662;-84
2023/08/04 09:51:08;;;;;;;7.18;6.68;;;;;;;;;;5085291;28;20237;-80
2023/08/04 09:53:40;;;;;;;6.65;6.07;;;;;;;;;;5073539;28;20232;-81
2023/08/04 09:56:10;;;;;;;7.43;6.72;;;;;;;;;;5086014;28;20201;-82
2023/08/04 09:58:37;;;;;;;9.75;7.03;;;;;;;;;;5083430;28;20209;-83
2023/08/04 10:01:04;;;;;;;7.25;6.65;;;;;;;;;;5083441;28;20196;-83
2023/08/04 10:03:31;;;;;;;6.85;6.25;;;;;;;;;;5081195;28;20272;-82
2023/08/04 10:06:00;;;;;;;7.03;6.43;;;;;;;;;;5086116;28;20235;-87
2023/08/04 10:08:29;;;;;;;7.22;6.72;;;;;;;;;;5073082;28;20201;-82
2023/08/04 10:10:57;;;;;;;9.90;6.72;;;;;;;;;;5072628;28;20250;-79
2023/08/04 10:13:26;;;;;;;6.57;6.07;;;;;;;;;;5082332;28;20232;-80
2023/08/04 10:15:53;;;;;;;6.90;6.32;;;;;;;;;;5082538;28;20667;-80
2023/08/04 10:18:21;;;;;;;7.25;6.65;;;;;;;;;;5074384;28;20197;-80
2023/08/04 10:20:48;;;;;;;7.25;6.68;;;;;;;;;;5084165;28;20203;-80
2023/08/04 10:23:15;;;;;;;7.57;6.88;;;;;;;;;;5074736;28;20201;-80
2023/08/04 10:25:54;;;;;;;8.15;6.65;;;;;;;;;;5073058;28;20212;-83
2023/08/04 10:28:23;;;;;;;7.07;6.57;;;;;;;;;;5082482;28;20667;-88
2023/08/04 10:31:04;;;;;;;7.30;6.53;;;;;;;;;;5076672;28;20204;-86
2023/08/04 10:33:31;;;;;;;9.73;6.72;;;;;;;;;;5072341;28;20227;-86
2023/08/04 10:36:06;;;;;;;6.90;6.40;;;;;;;;;;5086912;28;20629;-86
2023/08/04 10:38:44;;;;;;;8.00;7.35;;;;;;;;;;5084279;28;20204;-86
2023/08/04 10:41:11;;;;;;;7.57;6.97;;;;;;;;;;5087094;28;20205;-88
2023/08/04 10:43:40;;;;;;;7.95;7.25;;;;;;;;;;5073687;28;20205;-91
2023/08/04 10:46:10;;;;;;;9.43;6.60;;;;;;;;;;5090156;28;20200;-91
2023/08/04 10:48:41;;;;;;;7.80;7.05;;;;;;;;;;5077598;28;20228;-95
2023/08/04 10:51:08;;;;;;;7.20;6.70;;;;;;;;;;5090775;28;20646;-93
2023/08/04 10:53:37;;;;;;;7.63;6.88;;;;;;;;;;5079450;28;20236;-88
2023/08/04 10:56:06;;;;;;;7.47;6.88;;;;;;;;;;5083241;28;20560;-81
2023/08/04 10:58:33;;;;;;;7.38;6.60;;;;;;;;;;5080764;28;20196;-85
2023/08/04 11:01:03;;;;;;;9.43;8.38;;;;;;;;;;5092377;28;20202;-83
2023/08/04 11:03:33;;;;;;;7.40;6.80;;;;;;;;;;5080991;28;20192;-81
2023/08/04 11:06:00;;;;;;;8.00;7.30;;;;;;;;;;5093009;28;20193;-84
2023/08/04 11:08:29;;;;;;;8.45;7.70;;;;;;;;;;5082151;28;20608;-83
2023/08/04 11:11:00;;;;;;;7.68;7.07;;;;;;;;;;5092225;28;20192;-82
2023/08/04 11:13:27;;;;;;;7.90;7.30;;;;;;;;;;5092133;28;20220;-83
2023/08/04 11:15:54;;;;;;;8.68;7.78;;;;;;;;;;5091329;28;20635;-83
2023/08/04 11:18:24;;;;;;;7.97;7.32;;;;;;;;;;5091468;28;20196;-83
2023/08/04 11:20:51;;;;;;;8.57;7.88;;;;;;;;;;5092284;28;20189;-83
2023/08/04 11:23:26;;;;;;;8.43;7.63;;;;;;;;;;5091943;28;20203;-83
2023/08/04 11:25:53;;;;;;;10.02;7.25;;;;;;;;;;5092353;28;20253;-83
2023/08/04 11:28:22;;;;;;;8.32;7.63;;;;;;;;;;5091979;28;20210;-83
2023/08/04 11:30:49;;;;;;;8.40;7.70;;;;;;;;;;5092454;28;20207;-82
2023/08/04 11:33:16;;;;;;;8.88;8.07;;;;;;;;;;5091313;28;20220;-82
2023/08/04 11:35:46;;;;;;;8.93;8.23;;;;;;;;;;5091772;28;20196;-83
2023/08/04 11:38:13;;;;;;;8.95;8.07;;;;;;;;;;5079615;28;20197;-84
2023/08/04 11:40:55;;;;;;;9.82;9.02;;;;;;;;;;5091823;28;20196;-82
2023/08/04 11:43:22;;;;;;;9.80;8.90;;;;;;;;;;5091517;28;20263;-83
2023/08/04 11:45:49;;;;;;;9.35;8.50;;;;;;;;;;5079423;28;20207;-83
2023/08/04 11:48:16;;;;;;;9.55;8.80;;;;;;;;;;5076531;28;20231;-83
2023/08/04 11:50:43;;;;;;;9.32;8.55;;;;;;;;;;5091402;28;20202;-83
2023/08/04 11:53:15;;;;;;;9.00;8.18;;;;;;;;;;5091423;28;20232;-81
2023/08/04 11:55:54;;;;;;;9.23;8.38;;;;;;;;;;5091569;28;20203;-82
2023/08/04 11:58:29;;;;;;;9.18;8.38;;;;;;;;;;5090851;28;20206;-82
2023/08/04 12:00:56;;;;;;;8.98;8.18;;;;;;;;;;5091617;28;20204;-82
2023/08/04 12:03:23;;;;;;;10.45;9.45;;;;;;;;;;5090508;28;20260;-83
2023/08/04 12:05:51;;;;;;;9.65;8.65;;;;;;;;;;5090943;28;20666;-82
2023/08/04 12:08:19;;;;;;;8.88;8.07;;;;;;;;;;5090930;28;20204;-82
2023/08/04 12:11:00;;;;;;;8.68;7.97;;;;;;;;;;5090988;28;20640;-83
2023/08/04 12:13:34;;;;;;;9.10;8.40;;;;;;;;;;5090450;28;20705;-82
2023/08/04 12:16:00;;;;;;;10.02;9.07;;;;;;;;;;5091134;28;20188;-83
2023/08/04 12:18:29;;;;;;;9.68;8.48;;;;;;;;;;5090826;28;20195;-83
2023/08/04 12:20:57;;;;;;;8.85;8.15;;;;;;;;;;5090791;28;20189;-83
2023/08/04 12:23:25;;;;;;;10.70;8.05;;;;;;;;;;5090253;28;20223;-84
2023/08/04 12:25:52;;;;;;;8.68;7.63;;;;;;;;;;5090840;28;20193;-83
2023/08/04 12:28:19;;;;;;;9.73;8.93;;;;;;;;;;5090500;28;20290;-83
2023/08/04 12:30:46;;;;;;;8.90;8.00;;;;;;;;;;5090858;28;20207;-83
2023/08/04 12:33:13;;;;;;;9.90;8.45;;;;;;;;;;5087196;28;20216;-83
2023/08/04 12:35:40;;;;;;;8.20;7.45;;;;;;;;;;5090406;28;20646;-83
2023/08/04 12:38:06;;;;;;;8.90;8.15;;;;;;;;;;5090638;28;20199;-84
2023/08/04 12:40:36;;;;;;;9.15;7.30;;;;;;;;;;5090699;28;20197;-83
2023/08/04 12:43:02;;;;;;;9.77;8.98;;;;;;;;;;5090867;28;20192;-82
2023/08/04 12:45:29;;;;;;;12.48;8.68;;;;;;;;;;5090389;28;20188;-84
2023/08/04 12:47:56;;;;;;;9.77;8.77;;;;;;;;;;5090617;28;20204;-82
2023/08/04 12:50:23;;;;;;;9.23;8.43;;;;;;;;;;5090356;28;20208;-83
2023/08/04 12:52:50;;;;;;;10.13;9.13;;;;;;;;;;5090550;28;20216;-83
2023/08/04 12:55:16;;;;;;;10.55;8.52;;;;;;;;;;5090559;28;20199;-83
2023/08/04 12:57:45;;;;;;;10.57;8.43;;;;;;;;;;5090283;28;20658;-82
2023/08/04 13:00:12;;;;;;;9.65;8.77;;;;;;;;;;5090250;28;20204;-82
2023/08/04 13:02:39;;;;;;;9.45;8.65;;;;;;;;;;5090341;28;20197;-82
2023/08/04 13:05:07;;;;;;;9.55;8.45;;;;;;;;;;5089963;28;20199;-84
2023/08/04 13:07:34;;;;;;;9.70;8.75;;;;;;;;;;5090164;28;20296;-84
2023/08/04 13:10:00;;;;;;;8.93;8.20;;;;;;;;;;5090125;28;20549;-84
2023/08/04 13:12:27;;;;;;;11.50;9.50;;;;;;;;;;5090644;28;20192;-83
2023/08/04 13:14:57;;;;;;;8.27;7.35;;;;;;;;;;5089895;28;20219;-83
2023/08/04 13:17:24;;;;;;;8.90;8.20;;;;;;;;;;5090166;28;20241;-83
2023/08/04 13:19:51;;;;;;;8.77;8.07;;;;;;;;;;5090154;28;20204;-83
2023/08/04 13:22:18;;;;;;;8.52;7.78;;;;;;;;;;5090671;28;20193;-83
2023/08/04 13:24:45;;;;;;;9.82;8.70;;;;;;;;;;5087897;28;20203;-83
2023/08/04 13:27:11;;;;;;;11.82;9.15;;;;;;;;;;5087976;28;20226;-83
2023/08/04 13:29:38;;;;;;;10.10;9.23;;;;;;;;;;5090228;28;20192;-82
2023/08/04 13:32:07;;;;;;;10.27;9.48;;;;;;;;;;5090326;28;20201;-83
2023/08/04 13:34:36;;;;;;;9.55;8.65;;;;;;;;;;5088197;28;20232;-82
2023/08/04 13:37:03;;;;;;;9.15;8.48;;;;;;;;;;5079695;28;20235;-83
2023/08/04 13:39:30;;;;;;;10.63;9.00;;;;;;;;;;5089818;28;20204;-82
2023/08/04 13:41:57;;;;;;;9.27;8.38;;;;;;;;;;5092574;28;20208;-81
2023/08/04 13:44:24;;;;;;;11.35;10.10;;;;;;;;;;5094130;28;20208;-82
2023/08/04 13:46:50;;;;;;;11.18;10.27;;;;;;;;;;5093709;28;20658;-83
2023/08/04 13:49:21;;;;;;;11.15;10.10;;;;;;;;;;5081747;28;20201;-81
2023/08/04 13:51:48;;;;;;;10.88;10.10;;;;;;;;;;5077850;28;20250;-82
2023/08/04 13:54:15;;;;;;;11.45;10.50;;;;;;;;;;5093598;28;20267;-82
2023/08/04 13:56:41;;;;;;;10.02;9.32;;;;;;;;;;5089121;28;20197;-82
2023/08/04 13:59:09;;;;;;;11.48;10.32;;;;;;;;;;5078418;28;20196;-83
2023/08/04 14:01:35;;;;;;;9.82;9.13;;;;;;;;;;5093939;28;20207;-82
2023/08/04 14:04:03;;;;;;;11.05;9.20;;;;;;;;;;5093128;28;20555;-82
2023/08/04 14:06:34;;;;;;;10.70;9.80;;;;;;;;;;5093649;28;20237;-81
2023/08/04 14:09:01;;;;;;;11.98;11.07;;;;;;;;;;5076979;28;20257;-81
2023/08/04 14:11:29;;;;;;;12.30;11.20;;;;;;;;;;5076343;28;20295;-84
2023/08/04 14:13:56;;;;;;;12.32;11.07;;;;;;;;;;5094391;28;20228;-81
2023/08/04 14:16:23;;;;;;;11.90;11.05;;;;;;;;;;5076272;28;20203;-82
2023/08/04 14:18:50;;;;;;;12.60;11.02;;;;;;;;;;5076036;28;20188;-82
2023/08/04 14:21:17;;;;;;;12.90;11.70;;;;;;;;;;5059953;28;20597;-78
2023/08/04 14:23:46;;;;;;;13.18;12.07;;;;;;;;;;5094371;28;20196;-77
2023/08/04 14:26:13;;;;;;;13.73;12.55;;;;;;;;;;5059968;28;20206;-77
2023/08/04 14:28:40;;;;;;;13.55;12.35;;;;;;;;;;5094865;28;20210;-77
2023/08/04 14:31:07;;;;;;;14.93;13.82;;;;;;;;;;5059616;28;20207;-78
2023/08/04 14:33:34;;;;;;;14.65;13.45;;;;;;;;;;5075887;28;20215;-78
2023/08/04 14:36:01;;;;;;;15.35;14.05;;;;;;;;;;5057147;28;20207;-78
2023/08/04 14:38:29;;;;;;;14.02;12.93;;;;;;;;;;5047843;28;20228;-77
2023/08/04 14:40:59;;;;;;;16.30;14.77;;;;;;;;;;5073950;28;20201;-79
2023/08/04 14:43:26;;;;;;;15.90;14.60;;;;;;;;;;5055765;28;20197;-79
2023/08/04 14:45:53;;;;;;;16.35;14.80;;;;;;;;;;5073553;28;20208;-80